Time;durP1;ratioP1;P1;durP2;ratioP2;P2;SDS_P1;SDS_P2;PMS_P1;PMS_P2;Temp;Humidity;BMP_temperature;BMP_pressure;BME280_temperature;BME280_humidity;BME280_pressure;Samples;Min_cycle;Max_cycle;Signal;HPM_P1;HPM_P2
2022/10/13 00:00:16;;;;;;;16.85;7.70;;;10.70;99.90;;;;;;5054205;28;20040;-83
2022/10/13 00:02:41;;;;;;;15.93;8.82;;;10.70;99.90;;;;;;5071872;28;20041;-83
2022/10/13 00:05:07;;;;;;;17.55;7.97;;;10.70;99.90;;;;;;5070879;28;20113;-83
2022/10/13 00:07:33;;;;;;;17.73;7.25;;;10.70;99.90;;;;;;5070634;28;20040;-83
2022/10/13 00:09:58;;;;;;;22.58;8.45;;;10.70;99.90;;;;;;5070704;28;20047;-83
2022/10/13 00:12:24;;;;;;;17.45;7.85;;;10.70;99.90;;;;;;5070482;28;20044;-83
2022/10/13 00:14:49;;;;;;;17.38;7.70;;;10.80;99.90;;;;;;5070674;28;20033;-83
2022/10/13 00:17:15;;;;;;;18.58;8.25;;;10.70;99.90;;;;;;5070909;28;20089;-83
2022/10/13 00:19:41;;;;;;;16.05;8.70;;;10.70;99.90;;;;;;5070642;28;20554;-83
2022/10/13 00:22:06;;;;;;;15.88;8.05;;;10.70;99.90;;;;;;5070566;28;20082;-83
2022/10/13 00:24:32;;;;;;;18.98;8.20;;;10.70;99.90;;;;;;5054101;28;20154;-83
2022/10/13 00:26:57;;;;;;;17.52;8.00;;;10.70;99.90;;;;;;5070592;28;20078;-83
2022/10/13 00:29:23;;;;;;;19.85;8.27;;;10.70;99.90;;;;;;5070299;28;20119;-83
2022/10/13 00:31:48;;;;;;;18.15;8.32;;;10.80;99.90;;;;;;5070033;28;20203;-83
2022/10/13 00:34:14;;;;;;;15.25;7.53;;;10.80;99.90;;;;;;5070615;28;20208;-83
2022/10/13 00:36:39;;;;;;;18.58;8.13;;;10.70;99.90;;;;;;5053686;28;20047;-83
2022/10/13 00:39:05;;;;;;;18.83;8.57;;;10.80;99.90;;;;;;5070325;28;20045;-83
2022/10/13 00:41:31;;;;;;;17.63;8.45;;;10.80;99.90;;;;;;5070355;28;20051;-83
2022/10/13 00:44:22;;;;;;;16.63;8.52;;;10.80;99.90;;;;;;5070524;28;20486;-83
2022/10/13 00:46:48;;;;;;;19.35;7.88;;;10.80;99.90;;;;;;5070232;28;20042;-83
2022/10/13 00:49:14;;;;;;;17.98;8.57;;;10.80;99.90;;;;;;5070348;28;20115;-83
2022/10/13 00:51:43;;;;;;;18.00;8.20;;;10.70;99.90;;;;;;5069909;28;20094;-83
2022/10/13 00:54:12;;;;;;;17.42;8.68;;;10.70;99.90;;;;;;5051300;28;20064;-82
2022/10/13 00:56:39;;;;;;;17.30;8.57;;;10.70;99.90;;;;;;5051923;28;20406;-82
2022/10/13 00:59:13;;;;;;;17.95;7.60;;;10.70;99.90;;;;;;5070079;28;20076;-82
2022/10/13 01:01:39;;;;;;;20.25;8.75;;;10.70;99.90;;;;;;5055766;28;20067;-82
2022/10/13 01:04:05;;;;;;;18.42;8.75;;;10.80;99.90;;;;;;5072706;28;20037;-83
2022/10/13 01:06:30;;;;;;;16.73;8.55;;;10.80;99.90;;;;;;5072657;28;20725;-83
2022/10/13 01:08:56;;;;;;;18.10;8.32;;;10.80;99.90;;;;;;5073003;28;20045;-82
2022/10/13 01:11:43;;;;;;;17.67;8.10;;;10.80;99.90;;;;;;5055950;28;20532;-83
2022/10/13 01:14:17;;;;;;;16.77;8.55;;;10.80;99.90;;;;;;5073640;28;20552;-83
2022/10/13 01:16:55;;;;;;;15.00;8.00;;;10.80;99.90;;;;;;5073351;28;20047;-82
2022/10/13 01:19:51;;;;;;;15.60;7.75;;;10.80;99.90;;;;;;5073711;28;20037;-82
2022/10/13 01:22:20;;;;;;;17.23;8.35;;;10.80;99.90;;;;;;5055733;28;20482;-82
2022/10/13 01:25:18;;;;;;;17.08;8.07;;;10.80;99.90;;;;;;5056742;28;20044;-82
2022/10/13 01:28:00;;;;;;;19.83;9.05;;;10.80;99.90;;;;;;5073984;28;20097;-83
2022/10/13 01:30:27;;;;;;;13.65;7.72;;;10.80;99.90;;;;;;5073461;28;20083;-82
2022/10/13 01:33:04;;;;;;;14.43;7.68;;;10.80;99.90;;;;;;5073385;28;20041;-83
2022/10/13 01:36:08;;;;;;;16.20;7.88;;;10.80;99.90;;;;;;5072239;28;20771;-82
2022/10/13 01:38:55;;;;;;;18.75;8.10;;;10.80;99.90;;;;;;5072855;28;20075;-82
2022/10/13 01:41:37;;;;;;;20.42;8.73;;;10.80;99.90;;;;;;5073244;28;20041;-82
2022/10/13 01:44:23;;;;;;;16.38;7.68;;;10.80;99.90;;;;;;5073135;28;20036;-82
2022/10/13 01:46:50;;;;;;;18.60;8.38;;;10.80;99.90;;;;;;5071933;28;20392;-82
2022/10/13 01:49:19;;;;;;;18.90;8.65;;;10.70;99.90;;;;;;5054533;28;20041;-81
2022/10/13 01:51:46;;;;;;;22.40;9.57;;;10.80;99.90;;;;;;5054614;28;20049;-82
2022/10/13 01:54:12;;;;;;;13.77;8.15;;;10.80;99.90;;;;;;5071821;28;20055;-81
2022/10/13 01:56:37;;;;;;;18.92;8.75;;;10.80;99.90;;;;;;5073170;28;20486;-82
2022/10/13 01:59:08;;;;;;;18.65;8.68;;;10.80;99.90;;;;;;5056163;28;20044;-81
2022/10/13 02:02:10;;;;;;;17.50;8.80;;;10.80;99.90;;;;;;5072176;28;20083;-82
2022/10/13 02:04:44;;;;;;;18.17;8.80;;;10.80;99.90;;;;;;4976245;28;20054;-82
2022/10/13 02:07:16;;;;;;;20.25;9.85;;;10.80;99.90;;;;;;4976755;28;20200;-82
2022/10/13 02:10:04;;;;;;;17.83;8.77;;;10.80;99.90;;;;;;4975890;28;20605;-82
2022/10/13 02:12:35;;;;;;;16.50;8.68;;;10.70;99.90;;;;;;4959996;28;20286;-81
2022/10/13 02:15:03;;;;;;;16.58;8.18;;;10.70;99.90;;;;;;4976462;28;20050;-81
2022/10/13 02:17:30;;;;;;;17.58;9.10;;;10.70;99.90;;;;;;4976008;28;20120;-81
2022/10/13 02:19:56;;;;;;;16.50;8.82;;;10.70;99.90;;;;;;4976123;28;20535;-81
2022/10/13 02:22:29;;;;;;;17.65;8.23;;;10.70;99.90;;;;;;4959416;28;20050;-81
2022/10/13 02:24:54;;;;;;;20.58;8.15;;;10.70;99.90;;;;;;4976182;28;20140;-82
2022/10/13 02:27:21;;;;;;;20.15;9.20;;;10.70;99.90;;;;;;4976166;28;20141;-82
2022/10/13 02:29:52;;;;;;;19.05;9.13;;;10.70;99.90;;;;;;4959861;28;20038;-82
2022/10/13 02:32:17;;;;;;;21.65;9.18;;;10.70;99.90;;;;;;4959661;28;20078;-81
2022/10/13 02:34:43;;;;;;;16.65;9.18;;;10.70;99.90;;;;;;4975829;28;20065;-81
2022/10/13 02:37:08;;;;;;;19.15;9.13;;;10.70;99.90;;;;;;4975692;28;20046;-82
2022/10/13 02:39:34;;;;;;;19.65;9.35;;;10.70;99.90;;;;;;4975665;28;20049;-81
2022/10/13 02:41:59;;;;;;;19.50;9.43;;;10.70;99.90;;;;;;5069523;28;20055;-82
2022/10/13 02:44:25;;;;;;;20.13;9.45;;;10.70;99.90;;;;;;5071917;28;20037;-81
2022/10/13 02:46:50;;;;;;;17.40;8.98;;;10.80;99.90;;;;;;5072395;28;20405;-82
2022/10/13 02:49:16;;;;;;;17.63;8.63;;;10.80;99.90;;;;;;5072480;28;20500;-82
2022/10/13 02:51:41;;;;;;;18.85;9.70;;;10.80;99.90;;;;;;5072005;28;20549;-82
2022/10/13 02:54:07;;;;;;;19.52;9.38;;;10.70;99.90;;;;;;5072074;28;20139;-82
2022/10/13 02:56:33;;;;;;;16.65;8.45;;;10.80;99.90;;;;;;5072211;28;20072;-82
2022/10/13 02:58:58;;;;;;;19.35;9.95;;;10.80;99.90;;;;;;5055277;28;20123;-81
2022/10/13 03:01:24;;;;;;;22.60;8.90;;;10.80;99.90;;;;;;5071792;28;20081;-82
2022/10/13 03:03:49;;;;;;;18.58;8.65;;;10.80;99.90;;;;;;5072062;28;20032;-81
2022/10/13 03:06:15;;;;;;;17.45;9.05;;;10.90;99.90;;;;;;5071824;28;20119;-82
2022/10/13 03:08:41;;;;;;;17.05;9.23;;;10.90;99.90;;;;;;5071816;28;20107;-82
2022/10/13 03:11:06;;;;;;;18.23;8.73;;;10.90;99.90;;;;;;5071111;28;20040;-81
2022/10/13 03:13:32;;;;;;;16.75;9.02;;;10.90;99.90;;;;;;5070987;28;20577;-82
2022/10/13 03:15:58;;;;;;;18.48;9.15;;;10.90;99.90;;;;;;5071960;28;20387;-81
2022/10/13 03:18:23;;;;;;;14.70;8.05;;;11.00;99.90;;;;;;5071788;28;20082;-82
2022/10/13 03:21:01;;;;;;;17.80;10.23;;;11.00;99.90;;;;;;5071393;28;20173;-82
2022/10/13 03:23:26;;;;;;;16.35;8.68;;;11.00;99.90;;;;;;5071003;28;20032;-82
2022/10/13 03:25:52;;;;;;;17.83;9.90;;;11.00;99.90;;;;;;5055080;28;20089;-82
2022/10/13 03:28:18;;;;;;;16.60;9.82;;;11.00;99.90;;;;;;5071560;28;20055;-81
2022/10/13 03:30:44;;;;;;;18.33;10.32;;;11.10;99.90;;;;;;5071487;28;20040;-82
2022/10/13 03:33:09;;;;;;;16.85;9.15;;;11.10;99.90;;;;;;5071658;28;20178;-81
2022/10/13 03:35:35;;;;;;;19.85;10.27;;;11.10;99.90;;;;;;5071539;28;20505;-82
2022/10/13 03:38:01;;;;;;;17.85;9.95;;;11.10;99.90;;;;;;5071415;28;20055;-81
2022/10/13 03:40:27;;;;;;;18.50;9.50;;;11.10;99.90;;;;;;5054606;28;20048;-82
2022/10/13 03:42:53;;;;;;;22.15;10.60;;;11.10;99.90;;;;;;5070829;28;20401;-82
2022/10/13 03:45:19;;;;;;;16.20;8.88;;;11.10;99.90;;;;;;5070245;28;20106;-82
2022/10/13 03:47:45;;;;;;;19.42;10.05;;;11.10;99.90;;;;;;5071431;28;20505;-81
2022/10/13 03:50:11;;;;;;;28.55;9.75;;;11.20;99.90;;;;;;5070849;28;20515;-82
2022/10/13 03:52:36;;;;;;;20.17;10.68;;;11.20;99.90;;;;;;5070727;28;20051;-82
2022/10/13 03:55:02;;;;;;;21.13;10.82;;;11.20;99.90;;;;;;5072591;28;20036;-81
2022/10/13 03:57:28;;;;;;;18.67;9.48;;;11.20;99.90;;;;;;5070767;28;20486;-81
2022/10/13 03:59:55;;;;;;;20.13;10.90;;;11.20;99.90;;;;;;5072293;28;20037;-81
2022/10/13 04:02:21;;;;;;;22.35;10.70;;;11.30;99.90;;;;;;5070917;28;20040;-82
2022/10/13 04:04:47;;;;;;;21.33;11.93;;;11.30;99.90;;;;;;5071028;28;20040;-81
2022/10/13 04:07:12;;;;;;;19.42;10.73;;;11.30;99.90;;;;;;5070911;28;20516;-81
2022/10/13 04:09:39;;;;;;;21.88;15.77;;;11.30;99.90;;;;;;5070422;28;20123;-81
2022/10/13 04:12:04;;;;;;;17.30;10.10;;;11.30;99.90;;;;;;5053775;28;20075;-81
2022/10/13 04:14:30;;;;;;;24.40;10.63;;;11.40;99.90;;;;;;5069640;28;20531;-81
2022/10/13 04:16:55;;;;;;;21.65;10.20;;;11.30;99.90;;;;;;5069701;28;20032;-81
2022/10/13 04:19:21;;;;;;;17.77;9.88;;;11.30;99.90;;;;;;5070556;28;20085;-82
2022/10/13 04:21:46;;;;;;;16.27;9.95;;;11.30;99.90;;;;;;5053564;28;20402;-81
2022/10/13 04:24:13;;;;;;;16.75;9.93;;;11.30;99.90;;;;;;5070593;28;20037;-81
2022/10/13 04:26:39;;;;;;;17.63;9.63;;;11.30;99.90;;;;;;5053964;28;20067;-81
2022/10/13 04:29:06;;;;;;;21.25;10.38;;;11.30;99.90;;;;;;5054125;28;20048;-81
2022/10/13 04:31:32;;;;;;;17.88;9.98;;;11.30;99.90;;;;;;5070228;28;20413;-82
2022/10/13 04:33:58;;;;;;;19.85;10.25;;;11.30;99.90;;;;;;5070183;28;20036;-81
2022/10/13 04:36:24;;;;;;;16.67;9.45;;;11.30;99.90;;;;;;5070623;28;20059;-81
2022/10/13 04:38:51;;;;;;;18.13;11.07;;;11.30;99.90;;;;;;5070564;28;20132;-81
2022/10/13 04:41:17;;;;;;;20.05;15.55;;;11.40;99.90;;;;;;5069925;28;20486;-81
2022/10/13 04:43:45;;;;;;;21.00;10.27;;;11.40;99.90;;;;;;5070636;28;20055;-81
2022/10/13 04:46:20;;;;;;;20.58;9.77;;;11.50;99.90;;;;;;5069529;28;20176;-81
2022/10/13 04:48:46;;;;;;;18.88;10.23;;;11.40;99.90;;;;;;5070208;28;20048;-82
2022/10/13 04:51:15;;;;;;;20.33;10.77;;;11.40;99.90;;;;;;5069728;28;20736;-82
2022/10/13 04:53:41;;;;;;;17.00;10.45;;;11.40;99.90;;;;;;5070273;28;20502;-81
2022/10/13 04:56:09;;;;;;;19.17;11.10;;;11.40;99.90;;;;;;5053516;28;20051;-82
2022/10/13 04:58:36;;;;;;;21.02;16.05;;;11.50;99.90;;;;;;5070261;28;20062;-82
2022/10/13 05:01:04;;;;;;;20.63;10.20;;;11.50;99.90;;;;;;5052994;28;20063;-81
2022/10/13 05:03:29;;;;;;;21.30;9.93;;;11.50;99.90;;;;;;5070449;28;20036;-81
2022/10/13 05:05:55;;;;;;;17.13;10.27;;;11.50;99.90;;;;;;5070494;28;20398;-82
2022/10/13 05:08:21;;;;;;;18.00;10.57;;;11.50;99.90;;;;;;5053447;28;20533;-82
2022/10/13 05:10:58;;;;;;;18.08;10.30;;;11.50;99.90;;;;;;5053187;28;20131;-82
2022/10/13 05:13:25;;;;;;;17.98;10.45;;;11.50;99.90;;;;;;5053345;28;20402;-81
2022/10/13 05:15:51;;;;;;;21.17;11.90;;;11.50;99.90;;;;;;5069397;28;20547;-81
2022/10/13 05:18:17;;;;;;;23.23;11.90;;;11.50;99.90;;;;;;5053120;28;20037;-81
2022/10/13 05:20:42;;;;;;;22.38;12.35;;;11.50;99.90;;;;;;5070609;28;20033;-81
2022/10/13 05:23:08;;;;;;;23.42;17.15;;;11.50;99.90;;;;;;5052689;28;20036;-82
2022/10/13 05:25:35;;;;;;;21.77;11.20;;;11.60;99.90;;;;;;5070107;28;20032;-82
2022/10/13 05:28:06;;;;;;;20.30;11.05;;;11.60;99.90;;;;;;5052768;28;20620;-82
2022/10/13 05:30:31;;;;;;;23.15;12.35;;;11.60;99.90;;;;;;5069731;28;20076;-82
2022/10/13 05:32:57;;;;;;;23.80;11.30;;;11.60;99.90;;;;;;5069415;28;20126;-82
2022/10/13 05:35:23;;;;;;;26.83;18.02;;;11.60;99.90;;;;;;5069661;28;20122;-82
2022/10/13 05:37:49;;;;;;;20.58;11.63;;;11.70;99.90;;;;;;5069950;28;20490;-82
2022/10/13 05:40:14;;;;;;;22.25;10.85;;;11.70;99.90;;;;;;5069704;28;20039;-82
2022/10/13 05:42:40;;;;;;;21.08;11.25;;;11.70;99.90;;;;;;5069378;28;20039;-82
2022/10/13 05:45:08;;;;;;;21.50;11.30;;;11.60;99.90;;;;;;5071075;28;20063;-82
2022/10/13 05:47:34;;;;;;;18.98;12.20;;;11.70;99.90;;;;;;5073303;28;20040;-82
2022/10/13 05:49:59;;;;;;;21.20;11.52;;;11.70;99.90;;;;;;5072134;28;20063;-82
2022/10/13 05:52:25;;;;;;;24.73;13.30;;;11.70;99.90;;;;;;5073057;28;20040;-82
2022/10/13 05:54:57;;;;;;;19.33;11.35;;;11.70;99.90;;;;;;5073272;28;20040;-82
2022/10/13 05:57:36;;;;;;;19.75;10.73;;;11.70;99.90;;;;;;5073204;28;20040;-82
2022/10/13 06:00:13;;;;;;;20.88;10.55;;;11.70;99.90;;;;;;5073085;28;20048;-82
2022/10/13 06:02:48;;;;;;;21.33;11.57;;;11.70;99.90;;;;;;5056290;28;20043;-82
2022/10/13 06:05:16;;;;;;;21.60;12.68;;;11.70;99.90;;;;;;5056861;28;20486;-82
2022/10/13 06:07:43;;;;;;;22.17;11.27;;;11.70;99.90;;;;;;5072862;28;20048;-82
2022/10/13 06:10:10;;;;;;;20.65;11.27;;;11.70;99.90;;;;;;5073350;28;20468;-82
2022/10/13 06:12:36;;;;;;;23.75;10.65;;;11.70;99.90;;;;;;5072646;28;20036;-82
2022/10/13 06:15:02;;;;;;;18.75;11.23;;;11.70;99.90;;;;;;5072278;28;20036;-82
2022/10/13 06:17:28;;;;;;;21.83;12.40;;;11.70;99.90;;;;;;5072097;28;20479;-82
2022/10/13 06:19:53;;;;;;;20.00;11.63;;;11.70;99.90;;;;;;5069903;28;20033;-82
2022/10/13 06:22:20;;;;;;;19.92;11.55;;;11.60;99.90;;;;;;5071567;28;20101;-82
2022/10/13 06:24:46;;;;;;;23.27;11.05;;;11.70;99.90;;;;;;5055508;28;20055;-82
2022/10/13 06:27:12;;;;;;;20.58;11.48;;;11.70;99.90;;;;;;5072198;28;20044;-82
2022/10/13 06:29:37;;;;;;;21.83;17.15;;;11.70;99.90;;;;;;5071852;28;20040;-82
2022/10/13 06:32:03;;;;;;;19.00;10.73;;;11.70;99.90;;;;;;5071610;28;20036;-82
2022/10/13 06:34:29;;;;;;;20.58;10.90;;;11.80;99.90;;;;;;5072485;28;20403;-82
2022/10/13 06:36:54;;;;;;;20.83;10.50;;;11.80;99.90;;;;;;5055268;28;20051;-82
2022/10/13 06:39:20;;;;;;;18.98;11.70;;;11.80;99.90;;;;;;5072268;28;20517;-82
2022/10/13 06:41:46;;;;;;;25.35;18.42;;;11.80;99.90;;;;;;5070814;28;20489;-82
2022/10/13 06:44:11;;;;;;;19.55;12.25;;;11.80;99.90;;;;;;5054233;28;20032;-82
2022/10/13 06:46:37;;;;;;;20.05;10.15;;;11.80;99.90;;;;;;5054723;28;20033;-82
2022/10/13 06:49:02;;;;;;;18.98;10.88;;;11.80;99.90;;;;;;5053898;28;20048;-82
2022/10/13 06:51:28;;;;;;;23.00;17.67;;;11.70;99.90;;;;;;5071034;28;20039;-82
2022/10/13 06:53:56;;;;;;;22.83;11.93;;;11.80;99.90;;;;;;5054541;28;20036;-82
2022/10/13 06:56:22;;;;;;;24.63;18.35;;;11.80;99.90;;;;;;5053244;28;20090;-82
2022/10/13 06:58:47;;;;;;;19.95;12.45;;;11.80;99.90;;;;;;5072493;28;20037;-82
2022/10/13 07:01:13;;;;;;;20.83;11.50;;;11.80;99.90;;;;;;5070807;28;20068;-82
2022/10/13 07:03:39;;;;;;;25.77;12.20;;;11.80;99.90;;;;;;5071158;28;20071;-81
2022/10/13 07:06:06;;;;;;;21.65;12.63;;;11.80;99.90;;;;;;5070775;28;20083;-82
2022/10/13 07:08:33;;;;;;;24.30;12.23;;;11.80;99.90;;;;;;5054181;28;20036;-82
2022/10/13 07:11:04;;;;;;;22.55;12.07;;;11.80;99.90;;;;;;5053797;28;20068;-81
2022/10/13 07:13:30;;;;;;;22.33;11.95;;;11.80;99.90;;;;;;5066041;28;20382;-82
2022/10/13 07:15:55;;;;;;;25.63;18.70;;;11.90;99.90;;;;;;5054552;28;20043;-81
2022/10/13 07:18:21;;;;;;;24.08;13.27;;;12.00;99.90;;;;;;5070994;28;20044;-81
2022/10/13 07:20:47;;;;;;;20.25;11.80;;;12.00;99.90;;;;;;5054498;28;20051;-82
2022/10/13 07:23:13;;;;;;;19.75;11.63;;;12.00;99.90;;;;;;5054335;28;20045;-82
2022/10/13 07:25:38;;;;;;;29.00;20.48;;;12.10;99.90;;;;;;5070569;28;20502;-82
2022/10/13 07:28:04;;;;;;;23.55;13.35;;;12.20;99.90;;;;;;5070411;28;20591;-82
2022/10/13 07:30:30;;;;;;;21.70;10.80;;;12.20;99.90;;;;;;5070022;28;20642;-81
2022/10/13 07:32:55;;;;;;;20.05;11.40;;;12.20;99.90;;;;;;5070471;28;20486;-82
2022/10/13 07:35:21;;;;;;;22.38;12.80;;;12.30;99.90;;;;;;5053564;28;20052;-82
2022/10/13 07:37:46;;;;;;;23.42;11.75;;;12.30;99.90;;;;;;5054146;28;20055;-82
2022/10/13 07:40:12;;;;;;;25.17;18.75;;;12.30;99.90;;;;;;5053916;28;20127;-82
2022/10/13 07:42:38;;;;;;;24.42;12.23;;;12.40;99.90;;;;;;5070168;28;20040;-82
2022/10/13 07:45:04;;;;;;;24.02;12.32;;;12.40;99.90;;;;;;5070494;28;20101;-82
2022/10/13 07:47:29;;;;;;;22.88;11.55;;;12.40;99.90;;;;;;5069939;28;20068;-82
2022/10/13 07:49:55;;;;;;;23.73;13.07;;;12.40;99.90;;;;;;5069853;28;20101;-82
2022/10/13 07:52:21;;;;;;;25.33;18.55;;;12.50;99.90;;;;;;5070016;28;20048;-82
2022/10/13 07:54:46;;;;;;;23.10;12.50;;;12.60;99.90;;;;;;5070274;28;20044;-82
2022/10/13 07:57:12;;;;;;;22.35;12.60;;;12.60;99.90;;;;;;5053403;28;20504;-82
2022/10/13 07:59:37;;;;;;;22.17;11.27;;;12.60;99.90;;;;;;5052673;28;20047;-82
2022/10/13 08:02:03;;;;;;;21.95;13.93;;;12.60;99.90;;;;;;5070097;28;20058;-82
2022/10/13 08:04:33;;;;;;;26.08;19.13;;;12.60;99.90;;;;;;5070500;28;20079;-82
2022/10/13 08:07:01;;;;;;;22.88;13.77;;;12.70;99.90;;;;;;5070367;28;20519;-82
2022/10/13 08:09:26;;;;;;;26.90;13.50;;;12.70;99.90;;;;;;5070137;28;20398;-82
2022/10/13 08:11:52;;;;;;;20.40;11.63;;;12.80;99.90;;;;;;5069545;28;20498;-82
2022/10/13 08:14:18;;;;;;;23.58;19.00;;;12.80;99.90;;;;;;5070195;28;20473;-82
2022/10/13 08:16:44;;;;;;;27.20;14.45;;;12.90;99.90;;;;;;5053536;28;20040;-82
2022/10/13 08:19:15;;;;;;;26.25;19.40;;;12.90;99.90;;;;;;5053378;28;20486;-82
2022/10/13 08:21:41;;;;;;;26.65;19.67;;;13.00;99.90;;;;;;5069528;28;20120;-82
2022/10/13 08:24:09;;;;;;;23.80;12.98;;;13.00;99.90;;;;;;5070039;28;20044;-82
2022/10/13 08:26:35;;;;;;;26.33;12.48;;;13.00;99.90;;;;;;5069768;28;20040;-82
2022/10/13 08:29:00;;;;;;;25.33;14.48;;;13.00;99.90;;;;;;5069881;28;20090;-82
2022/10/13 08:31:26;;;;;;;28.20;20.38;;;13.00;99.90;;;;;;5069639;28;20055;-82
2022/10/13 08:33:51;;;;;;;24.58;20.42;;;13.10;99.90;;;;;;5070064;28;20078;-82
2022/10/13 08:36:17;;;;;;;24.27;19.80;;;13.20;99.90;;;;;;5052999;28;20066;-82
2022/10/13 08:38:44;;;;;;;29.70;20.20;;;13.30;99.90;;;;;;5069574;28;20051;-82
2022/10/13 08:41:18;;;;;;;23.23;13.73;;;13.30;99.90;;;;;;5069793;28;20436;-82
2022/10/13 08:43:51;;;;;;;25.88;11.35;;;13.20;99.90;;;;;;5069390;28;20036;-82
2022/10/13 08:46:24;;;;;;;;;;;13.20;99.90;;;;;;5070004;28;20124;-82
2022/10/13 08:48:50;;;;;;;20.15;10.50;;;13.20;99.90;;;;;;5052178;28;19916;-82
2022/10/13 08:51:16;;;;;;;21.77;11.27;;;13.10;99.90;;;;;;5069429;28;20456;-82
2022/10/13 08:53:44;;;;;;;22.45;12.88;;;13.20;99.90;;;;;;5069498;28;20036;-82
2022/10/13 08:56:29;;;;;;;25.98;20.15;;;13.20;99.90;;;;;;5069643;28;20041;-82
2022/10/13 08:58:55;;;;;;;27.65;13.52;;;13.30;99.90;;;;;;5069099;28;20635;-83
2022/10/13 09:01:31;;;;;;;26.38;19.35;;;13.20;99.90;;;;;;5069388;28;20124;-82
2022/10/13 09:04:13;;;;;;;26.83;12.18;;;13.30;99.90;;;;;;5051304;28;20036;-82
2022/10/13 09:06:45;;;;;;;20.13;10.80;;;13.30;99.90;;;;;;5069908;28;20586;-82
2022/10/13 09:09:14;;;;;;;25.83;12.80;;;13.20;99.90;;;;;;5069627;28;20036;-82
2022/10/13 09:11:45;;;;;;;22.08;18.38;;;13.20;99.90;;;;;;5069263;28;20059;-82
2022/10/13 09:14:24;;;;;;;25.60;14.07;;;13.30;99.90;;;;;;5069660;28;20041;-82
2022/10/13 09:16:50;;;;;;;20.27;12.85;;;13.40;99.90;;;;;;5069686;28;20048;-82
2022/10/13 09:19:35;;;;;;;22.27;12.70;;;13.30;99.90;;;;;;5068526;28;20048;-82
2022/10/13 09:22:24;;;;;;;28.15;19.15;;;13.40;99.90;;;;;;5072456;28;20498;-82
2022/10/13 09:25:14;;;;;;;26.73;20.73;;;13.50;99.90;;;;;;5072172;28;20501;-82
2022/10/13 09:27:49;;;;;;;23.58;13.60;;;13.50;99.90;;;;;;5073336;28;20545;-82
2022/10/13 09:30:32;;;;;;;25.23;12.88;;;13.50;99.90;;;;;;5056445;28;20044;-82
2022/10/13 09:33:06;;;;;;;;;;;13.50;99.90;;;;;;5072459;28;20394;-82
2022/10/13 09:35:33;;;;;;;23.27;11.98;;;13.50;99.90;;;;;;5055989;28;19999;-82
2022/10/13 09:38:26;;;;;;;25.88;19.35;;;13.50;99.90;;;;;;5073030;28;20052;-82
2022/10/13 09:41:05;;;;;;;25.47;13.63;;;13.60;99.90;;;;;;5054475;28;20136;-82
2022/10/13 09:43:57;;;;;;;22.60;12.27;;;13.70;99.90;;;;;;5055645;28;20032;-82
2022/10/13 09:46:30;;;;;;;20.63;13.48;;;13.70;99.90;;;;;;5071920;28;20037;-82
2022/10/13 09:49:03;;;;;;;25.70;20.00;;;13.80;99.90;;;;;;5072522;28;20052;-82
2022/10/13 09:51:34;;;;;;;21.75;14.27;;;13.90;99.90;;;;;;5053251;28;20044;-82
2022/10/13 09:54:00;;;;;;;25.38;20.60;;;14.00;99.90;;;;;;5071679;28;20037;-82
2022/10/13 09:56:41;;;;;;;24.80;13.80;;;14.10;99.90;;;;;;5072149;28;20039;-82
2022/10/13 09:59:32;;;;;;;25.15;19.45;;;14.10;99.90;;;;;;5072210;28;20569;-82
2022/10/13 10:02:16;;;;;;;26.90;14.77;;;14.20;99.90;;;;;;5068656;28;20064;-82
2022/10/13 10:04:42;;;;;;;29.23;21.45;;;14.20;99.90;;;;;;5069396;28;20047;-82
2022/10/13 10:07:16;;;;;;;26.05;20.92;;;14.30;99.90;;;;;;5071031;28;20032;-82
2022/10/13 10:09:54;;;;;;;27.50;14.70;;;14.30;99.90;;;;;;5068939;28;20032;-82
2022/10/13 10:12:25;;;;;;;24.20;20.83;;;14.30;99.90;;;;;;5068761;28;20379;-82
2022/10/13 10:14:51;;;;;;;27.38;20.80;;;14.40;99.90;;;;;;5071402;28;20043;-82
2022/10/13 10:17:47;;;;;;;25.58;16.02;;;14.40;99.90;;;;;;5070684;28;20036;-82
2022/10/13 10:20:30;;;;;;;28.85;22.65;;;14.40;99.90;;;;;;5056342;28;20822;-82
2022/10/13 10:23:13;;;;;;;25.33;16.42;;;14.50;99.90;;;;;;5068070;28;20115;-83
2022/10/13 10:25:44;;;;;;;25.58;15.35;;;14.40;99.90;;;;;;5069120;28;20465;-82
2022/10/13 10:28:21;;;;;;;29.08;23.95;;;14.50;99.90;;;;;;5072567;28;20075;-83
2022/10/13 10:31:09;;;;;;;28.70;24.75;;;14.60;99.90;;;;;;5055299;28;20044;-82
2022/10/13 10:33:35;;;;;;;26.60;23.75;;;14.70;99.90;;;;;;5072525;28;20051;-83
2022/10/13 10:36:05;;;;;;;24.25;16.75;;;14.70;99.90;;;;;;5072218;28;20048;-83
2022/10/13 10:38:51;;;;;;;28.27;23.50;;;14.80;99.90;;;;;;5071889;28;20388;-82
2022/10/13 10:41:39;;;;;;;26.17;17.33;;;14.80;99.90;;;;;;5071804;28;20105;-82
2022/10/13 10:44:23;;;;;;;25.15;22.52;;;14.80;99.90;;;;;;5072135;28;20430;-82
2022/10/13 10:46:50;;;;;;;26.90;23.45;;;14.90;99.90;;;;;;5053347;28;20517;-82
2022/10/13 10:49:22;;;;;;;23.73;16.48;;;14.90;99.90;;;;;;5071527;28;20037;-82
2022/10/13 10:51:48;;;;;;;22.73;15.07;;;14.80;99.90;;;;;;5071808;28;20724;-82
2022/10/13 10:54:42;;;;;;;24.52;21.60;;;14.90;99.90;;;;;;5071900;28;20058;-82
2022/10/13 10:57:24;;;;;;;26.25;20.80;;;14.90;99.90;;;;;;5070801;28;20048;-82
2022/10/13 11:00:05;;;;;;;23.20;14.23;;;14.90;99.90;;;;;;5072334;28;20529;-82
2022/10/13 11:02:48;;;;;;;27.00;21.65;;;14.90;99.90;;;;;;5069747;28;20041;-82
2022/10/13 11:05:15;;;;;;;24.33;15.20;;;14.90;99.90;;;;;;5071752;28;20118;-82
2022/10/13 11:07:41;;;;;;;28.20;21.98;;;14.90;99.90;;;;;;5071670;28;20045;-82
2022/10/13 11:10:15;;;;;;;26.08;22.05;;;14.90;99.90;;;;;;5071227;28;20040;-82
2022/10/13 11:12:50;;;;;;;25.80;21.73;;;14.90;99.90;;;;;;5070932;28;20127;-82
2022/10/13 11:15:23;;;;;;;24.92;22.17;;;14.90;99.90;;;;;;5070875;28;20036;-82
2022/10/13 11:17:50;;;;;;;22.75;16.98;;;14.90;99.90;;;;;;5070980;28;20090;-82
2022/10/13 11:20:18;;;;;;;26.20;22.52;;;14.80;99.90;;;;;;5071838;28;20036;-82
2022/10/13 11:23:13;;;;;;;27.20;17.10;;;14.80;99.90;;;;;;5071194;28;20090;-82
2022/10/13 11:25:46;;;;;;;26.23;22.98;;;14.70;99.90;;;;;;5058151;28;20135;-82
2022/10/13 11:28:20;;;;;;;29.25;23.10;;;14.80;99.90;;;;;;5072045;28;20520;-82
2022/10/13 11:30:51;;;;;;;24.23;16.38;;;14.80;99.90;;;;;;5071601;28;20397;-82
2022/10/13 11:33:52;;;;;;;29.55;22.83;;;14.70;99.90;;;;;;5071515;28;20041;-82
2022/10/13 11:36:27;;;;;;;28.88;22.13;;;14.70;99.90;;;;;;5071731;28;20044;-82
2022/10/13 11:39:15;;;;;;;23.92;14.57;;;14.70;99.90;;;;;;5071261;28;20087;-82
2022/10/13 11:41:57;;;;;;;25.90;23.00;;;14.70;99.90;;;;;;5036641;28;20129;-82
2022/10/13 11:44:41;;;;;;;25.73;15.63;;;14.70;99.90;;;;;;5051330;28;20032;-82
2022/10/13 11:47:35;;;;;;;26.52;23.33;;;14.60;99.90;;;;;;5052743;28;20111;-82
2022/10/13 11:50:31;;;;;;;24.98;22.30;;;14.60;99.90;;;;;;5068903;28;20033;-82
2022/10/13 11:53:16;;;;;;;26.08;17.35;;;14.60;99.90;;;;;;5067582;28;20119;-82
2022/10/13 11:55:53;;;;;;;26.60;23.35;;;14.60;99.90;;;;;;5067698;28;20047;-82
2022/10/13 11:58:23;;;;;;;27.80;22.83;;;14.60;99.90;;;;;;5067103;28;20178;-82
2022/10/13 12:01:06;;;;;;;26.15;23.15;;;14.70;99.90;;;;;;5051815;28;20032;-82
2022/10/13 12:03:34;;;;;;;28.35;16.40;;;14.70;99.90;;;;;;5070761;28;20075;-82
2022/10/13 12:06:30;;;;;;;26.63;17.15;;;14.70;99.90;;;;;;5070344;28;20122;-82
2022/10/13 12:08:56;;;;;;;28.75;25.23;;;14.70;99.90;;;;;;5070287;28;20044;-82
2022/10/13 12:11:26;;;;;;;27.42;24.42;;;14.70;99.90;;;;;;5052982;28;20044;-82
2022/10/13 12:13:53;;;;;;;25.05;17.65;;;14.70;99.90;;;;;;5053235;28;20037;-82
2022/10/13 12:16:19;;;;;;;28.48;25.45;;;14.60;99.90;;;;;;5053548;28;20047;-82
2022/10/13 12:18:48;;;;;;;28.27;18.05;;;14.60;99.90;;;;;;5053521;28;20064;-82
2022/10/13 12:21:21;;;;;;;31.50;26.67;;;14.60;99.90;;;;;;5069820;28;20050;-82
2022/10/13 12:23:48;;;;;;;30.73;27.40;;;14.60;99.90;;;;;;5052937;28;20482;-82
2022/10/13 12:26:17;;;;;;;25.45;17.50;;;14.60;99.90;;;;;;5053454;28;20044;-82
2022/10/13 12:28:55;;;;;;;28.70;25.75;;;14.60;99.90;;;;;;5070025;28;20048;-82
2022/10/13 12:31:27;;;;;;;27.73;18.55;;;14.60;99.90;;;;;;5069569;28;20524;-82
2022/10/13 12:33:55;;;;;;;30.60;25.75;;;14.60;99.90;;;;;;5070037;28;20502;-82
2022/10/13 12:36:32;;;;;;;30.13;19.05;;;14.60;99.90;;;;;;5069732;28;20037;-82
2022/10/13 12:39:04;;;;;;;30.38;27.08;;;14.60;99.90;;;;;;5053298;28;20040;-82
2022/10/13 12:41:35;;;;;;;26.13;17.92;;;14.60;99.90;;;;;;5069344;28;20037;-82
2022/10/13 12:44:03;;;;;;;31.48;27.88;;;14.60;99.90;;;;;;5052233;28;20068;-82
2022/10/13 12:46:40;;;;;;;32.15;28.73;;;14.70;99.90;;;;;;5069713;28;20040;-82